sensor_id;sensor_type;location;lat;lon;timestamp;pressure;altitude;pressure_sealevel;temperature;humidity
28004;BME280;15330;51.234;6.754;2023-05-23T00:00:17;101162.97;;;17.00;100.00
28004;BME280;15330;51.234;6.754;2023-05-23T00:02:43;101155.91;;;17.06;100.00
28004;BME280;15330;51.234;6.754;2023-05-23T00:05:08;101162.81;;;17.08;100.00
28004;BME280;15330;51.234;6.754;2023-05-23T00:07:34;101167.41;;;17.14;100.00
28004;BME280;15330;51.234;6.754;2023-05-23T00:09:59;101165.19;;;16.69;100.00
28004;BME280;15330;51.234;6.754;2023-05-23T00:12:25;101163.34;;;16.69;100.00
28004;BME280;15330;51.234;6.754;2023-05-23T00:14:51;101166.13;;;16.82;100.00
28004;BME280;15330;51.234;6.754;2023-05-23T00:17:18;101163.84;;;16.79;100.00
28004;BME280;15330;51.234;6.754;2023-05-23T00:19:43;101164.84;;;16.78;100.00
28004;BME280;15330;51.234;6.754;2023-05-23T00:22:11;101172.16;;;16.84;100.00
28004;BME280;15330;51.234;6.754;2023-05-23T00:24:36;101170.69;;;16.82;100.00
28004;BME280;15330;51.234;6.754;2023-05-23T00:27:02;101164.13;;;16.91;100.00
28004;BME280;15330;51.234;6.754;2023-05-23T00:29:27;101162.81;;;16.80;100.00
28004;BME280;15330;51.234;6.754;2023-05-23T00:31:53;101163.41;;;16.82;100.00
28004;BME280;15330;51.234;6.754;2023-05-23T00:34:18;101162.88;;;16.94;100.00
28004;BME280;15330;51.234;6.754;2023-05-23T00:36:44;101166.38;;;16.87;100.00
28004;BME280;15330;51.234;6.754;2023-05-23T00:39:12;101171.16;;;16.85;100.00
28004;BME280;15330;51.234;6.754;2023-05-23T00:41:45;101172.63;;;16.88;100.00
28004;BME280;15330;51.234;6.754;2023-05-23T00:44:11;101174.38;;;16.74;100.00
28004;BME280;15330;51.234;6.754;2023-05-23T00:46:37;101177.34;;;16.79;100.00
28004;BME280;15330;51.234;6.754;2023-05-23T00:49:03;101187.44;;;16.49;100.00
28004;BME280;15330;51.234;6.754;2023-05-23T00:51:28;101192.03;;;16.56;100.00
28004;BME280;15330;51.234;6.754;2023-05-23T00:53:54;101196.59;;;16.34;100.00
28004;BME280;15330;51.234;6.754;2023-05-23T00:56:20;101192.72;;;16.22;100.00
28004;BME280;15330;51.234;6.754;2023-05-23T00:58:45;101187.25;;;16.15;100.00
28004;BME280;15330;51.234;6.754;2023-05-23T01:01:12;101198.59;;;16.46;100.00
28004;BME280;15330;51.234;6.754;2023-05-23T01:03:38;101202.84;;;16.20;100.00
28004;BME280;15330;51.234;6.754;2023-05-23T01:06:04;101194.16;;;16.39;100.00
28004;BME280;15330;51.234;6.754;2023-05-23T01:08:29;101196.91;;;16.24;100.00
28004;BME280;15330;51.234;6.754;2023-05-23T01:10:57;101191.22;;;15.98;100.00
28004;BME280;15330;51.234;6.754;2023-05-23T01:16:20;101190.41;;;16.19;100.00
28004;BME280;15330;51.234;6.754;2023-05-23T01:21:42;101190.50;;;16.10;100.00
28004;BME280;15330;51.234;6.754;2023-05-23T01:24:35;101196.69;;;16.04;100.00
28004;BME280;15330;51.234;6.754;2023-05-23T01:27:12;101195.06;;;16.10;100.00
28004;BME280;15330;51.234;6.754;2023-05-23T01:29:47;101191.53;;;16.09;100.00
28004;BME280;15330;51.234;6.754;2023-05-23T01:32:15;101202.31;;;16.24;100.00
28004;BME280;15330;51.234;6.754;2023-05-23T01:34:41;101194.88;;;16.11;100.00
28004;BME280;15330;51.234;6.754;2023-05-23T01:37:09;101204.75;;;16.19;100.00
28004;BME280;15330;51.234;6.754;2023-05-23T01:39:35;101202.63;;;16.00;100.00
28004;BME280;15330;51.234;6.754;2023-05-23T01:42:01;101200.69;;;16.08;100.00
28004;BME280;15330;51.234;6.754;2023-05-23T01:44:27;101197.03;;;16.16;100.00
28004;BME280;15330;51.234;6.754;2023-05-23T01:46:53;101206.91;;;16.09;100.00
28004;BME280;15330;51.234;6.754;2023-05-23T01:49:19;101205.03;;;16.09;100.00
28004;BME280;15330;51.234;6.754;2023-05-23T01:51:47;101206.63;;;16.04;100.00
28004;BME280;15330;51.234;6.754;2023-05-23T01:54:14;101204.66;;;16.12;100.00
28004;BME280;15330;51.234;6.754;2023-05-23T01:56:44;101207.47;;;16.04;100.00
28004;BME280;15330;51.234;6.754;2023-05-23T01:59:10;101204.06;;;15.96;100.00
28004;BME280;15330;51.234;6.754;2023-05-23T02:01:36;101212.75;;;16.12;100.00
28004;BME280;15330;51.234;6.754;2023-05-23T02:04:02;101217.38;;;15.83;100.00
28004;BME280;15330;51.234;6.754;2023-05-23T02:06:28;101208.97;;;15.92;100.00
28004;BME280;15330;51.234;6.754;2023-05-23T02:08:53;101205.25;;;15.93;100.00
28004;BME280;15330;51.234;6.754;2023-05-23T02:11:18;101211.00;;;16.05;100.00
28004;BME280;15330;51.234;6.754;2023-05-23T02:13:44;101212.94;;;16.11;100.00
28004;BME280;15330;51.234;6.754;2023-05-23T02:16:09;101222.34;;;16.15;100.00
28004;BME280;15330;51.234;6.754;2023-05-23T02:18:35;101220.19;;;16.10;100.00
28004;BME280;15330;51.234;6.754;2023-05-23T02:21:03;101207.47;;;16.04;100.00
28004;BME280;15330;51.234;6.754;2023-05-23T02:23:29;101211.56;;;16.00;100.00
28004;BME280;15330;51.234;6.754;2023-05-23T02:25:54;101202.44;;;16.01;100.00
28004;BME280;15330;51.234;6.754;2023-05-23T02:28:20;101206.09;;;16.08;100.00
28004;BME280;15330;51.234;6.754;2023-05-23T02:30:45;101209.63;;;15.94;100.00
28004;BME280;15330;51.234;6.754;2023-05-23T02:33:10;101210.94;;;15.98;100.00
28004;BME280;15330;51.234;6.754;2023-05-23T02:35:36;101207.41;;;15.98;100.00
28004;BME280;15330;51.234;6.754;2023-05-23T02:38:01;101211.84;;;16.05;100.00
28004;BME280;15330;51.234;6.754;2023-05-23T02:40:27;101217.78;;;16.01;100.00
28004;BME280;15330;51.234;6.754;2023-05-23T02:42:52;101217.72;;;16.09;100.00
28004;BME280;15330;51.234;6.754;2023-05-23T02:45:17;101225.53;;;16.04;100.00
28004;BME280;15330;51.234;6.754;2023-05-23T02:47:43;101228.88;;;15.91;100.00
28004;BME280;15330;51.234;6.754;2023-05-23T02:50:08;101235.00;;;16.00;100.00
28004;BME280;15330;51.234;6.754;2023-05-23T02:52:34;101230.31;;;15.87;100.00
28004;BME280;15330;51.234;6.754;2023-05-23T02:55:00;101233.25;;;16.07;100.00
28004;BME280;15330;51.234;6.754;2023-05-23T02:57:25;101233.91;;;15.94;100.00
28004;BME280;15330;51.234;6.754;2023-05-23T02:59:51;101225.63;;;15.96;100.00
28004;BME280;15330;51.234;6.754;2023-05-23T03:02:16;101240.03;;;16.03;100.00
28004;BME280;15330;51.234;6.754;2023-05-23T03:04:41;101234.78;;;15.65;100.00
28004;BME280;15330;51.234;6.754;2023-05-23T03:07:07;101238.84;;;15.61;100.00
28004;BME280;15330;51.234;6.754;2023-05-23T03:09:35;101239.50;;;15.78;100.00
28004;BME280;15330;51.234;6.754;2023-05-23T03:12:00;101242.97;;;15.87;100.00
28004;BME280;15330;51.234;6.754;2023-05-23T03:14:25;101236.53;;;15.88;100.00
28004;BME280;15330;51.234;6.754;2023-05-23T03:16:51;101243.88;;;15.79;100.00
28004;BME280;15330;51.234;6.754;2023-05-23T03:19:16;101238.38;;;15.58;100.00
28004;BME280;15330;51.234;6.754;2023-05-23T03:21:41;101236.75;;;15.34;100.00
28004;BME280;15330;51.234;6.754;2023-05-23T03:24:08;101236.34;;;15.60;100.00
28004;BME280;15330;51.234;6.754;2023-05-23T03:26:33;101241.38;;;15.63;100.00
28004;BME280;15330;51.234;6.754;2023-05-23T03:28:59;101243.88;;;15.64;100.00
28004;BME280;15330;51.234;6.754;2023-05-23T03:31:24;101245.69;;;15.49;100.00
28004;BME280;15330;51.234;6.754;2023-05-23T03:33:50;101243.47;;;15.53;100.00
28004;BME280;15330;51.234;6.754;2023-05-23T03:36:15;101233.44;;;15.47;100.00
28004;BME280;15330;51.234;6.754;2023-05-23T03:38:41;101247.06;;;15.30;100.00
28004;BME280;15330;51.234;6.754;2023-05-23T03:41:06;101246.13;;;15.23;100.00
28004;BME280;15330;51.234;6.754;2023-05-23T03:43:32;101236.19;;;15.38;100.00
28004;BME280;15330;51.234;6.754;2023-05-23T03:45:57;101235.09;;;15.48;100.00
28004;BME280;15330;51.234;6.754;2023-05-23T03:48:22;101246.84;;;15.55;100.00
28004;BME280;15330;51.234;6.754;2023-05-23T03:50:48;101243.16;;;15.56;100.00
28004;BME280;15330;51.234;6.754;2023-05-23T03:53:13;101260.81;;;15.73;100.00
28004;BME280;15330;51.234;6.754;2023-05-23T03:55:39;101258.63;;;15.54;100.00
28004;BME280;15330;51.234;6.754;2023-05-23T03:58:04;101269.88;;;15.42;100.00
28004;BME280;15330;51.234;6.754;2023-05-23T04:00:30;101262.53;;;15.36;100.00
28004;BME280;15330;51.234;6.754;2023-05-23T04:02:55;101273.88;;;15.47;100.00
28004;BME280;15330;51.234;6.754;2023-05-23T04:05:21;101272.56;;;15.42;100.00
28004;BME280;15330;51.234;6.754;2023-05-23T04:07:48;101269.03;;;15.42;100.00
28004;BME280;15330;51.234;6.754;2023-05-23T04:10:14;101270.56;;;15.59;100.00
28004;BME280;15330;51.234;6.754;2023-05-23T04:12:39;101269.56;;;15.37;100.00
28004;BME280;15330;51.234;6.754;2023-05-23T04:15:06;101277.38;;;15.47;100.00
28004;BME280;15330;51.234;6.754;2023-05-23T04:17:32;101280.66;;;15.42;100.00
28004;BME280;15330;51.234;6.754;2023-05-23T04:19:58;101277.34;;;15.55;100.00
28004;BME280;15330;51.234;6.754;2023-05-23T04:22:23;101286.63;;;15.53;100.00
28004;BME280;15330;51.234;6.754;2023-05-23T04:24:48;101291.16;;;15.52;100.00
28004;BME280;15330;51.234;6.754;2023-05-23T04:27:14;101283.19;;;15.59;100.00
28004;BME280;15330;51.234;6.754;2023-05-23T04:29:39;101285.94;;;15.73;100.00
28004;BME280;15330;51.234;6.754;2023-05-23T04:32:05;101293.28;;;15.65;100.00
28004;BME280;15330;51.234;6.754;2023-05-23T04:34:31;101287.38;;;15.47;100.00
28004;BME280;15330;51.234;6.754;2023-05-23T04:37:00;101293.22;;;15.50;100.00
28004;BME280;15330;51.234;6.754;2023-05-23T04:39:28;101295.72;;;15.52;100.00
28004;BME280;15330;51.234;6.754;2023-05-23T04:41:54;101293.38;;;15.49;100.00
28004;BME280;15330;51.234;6.754;2023-05-23T04:44:23;101299.69;;;15.41;100.00
28004;BME280;15330;51.234;6.754;2023-05-23T04:46:48;101298.69;;;15.42;100.00
28004;BME280;15330;51.234;6.754;2023-05-23T04:49:15;101299.78;;;15.33;100.00
28004;BME280;15330;51.234;6.754;2023-05-23T04:51:40;101297.94;;;15.33;100.00
28004;BME280;15330;51.234;6.754;2023-05-23T04:54:06;101300.63;;;15.33;100.00
28004;BME280;15330;51.234;6.754;2023-05-23T04:56:31;101312.59;;;15.31;100.00
28004;BME280;15330;51.234;6.754;2023-05-23T04:58:56;101302.41;;;15.18;100.00
28004;BME280;15330;51.234;6.754;2023-05-23T05:01:22;101302.56;;;15.25;100.00
28004;BME280;15330;51.234;6.754;2023-05-23T05:03:50;101311.16;;;15.20;100.00
28004;BME280;15330;51.234;6.754;2023-05-23T05:06:16;101308.53;;;15.50;100.00
28004;BME280;15330;51.234;6.754;2023-05-23T05:08:42;101310.78;;;15.46;100.00
28004;BME280;15330;51.234;6.754;2023-05-23T05:11:08;101309.72;;;15.55;100.00
28004;BME280;15330;51.234;6.754;2023-05-23T05:13:34;101311.50;;;15.63;100.00
28004;BME280;15330;51.234;6.754;2023-05-23T05:16:00;101314.84;;;15.65;100.00
28004;BME280;15330;51.234;6.754;2023-05-23T05:18:25;101312.75;;;15.52;100.00
28004;BME280;15330;51.234;6.754;2023-05-23T05:20:51;101313.06;;;15.57;100.00
28004;BME280;15330;51.234;6.754;2023-05-23T05:23:16;101325.81;;;15.63;100.00
28004;BME280;15330;51.234;6.754;2023-05-23T05:25:42;101314.13;;;15.48;100.00
28004;BME280;15330;51.234;6.754;2023-05-23T05:28:07;101315.03;;;15.63;100.00
28004;BME280;15330;51.234;6.754;2023-05-23T05:30:33;101331.69;;;15.44;100.00
28004;BME280;15330;51.234;6.754;2023-05-23T05:33:05;101328.03;;;15.60;100.00
28004;BME280;15330;51.234;6.754;2023-05-23T05:35:32;101329.84;;;15.67;100.00
28004;BME280;15330;51.234;6.754;2023-05-23T05:37:58;101327.84;;;15.61;100.00
28004;BME280;15330;51.234;6.754;2023-05-23T05:40:23;101343.94;;;15.55;100.00
28004;BME280;15330;51.234;6.754;2023-05-23T05:42:49;101338.78;;;15.22;100.00
28004;BME280;15330;51.234;6.754;2023-05-23T05:45:14;101342.97;;;15.25;100.00
28004;BME280;15330;51.234;6.754;2023-05-23T05:47:40;101344.59;;;15.34;100.00
28004;BME280;15330;51.234;6.754;2023-05-23T05:50:06;101344.59;;;15.34;100.00
28004;BME280;15330;51.234;6.754;2023-05-23T05:52:33;101346.53;;;15.40;100.00
28004;BME280;15330;51.234;6.754;2023-05-23T05:55:03;101352.97;;;15.62;100.00
28004;BME280;15330;51.234;6.754;2023-05-23T05:57:29;101360.56;;;15.58;100.00
28004;BME280;15330;51.234;6.754;2023-05-23T05:59:55;101356.25;;;15.26;100.00
28004;BME280;15330;51.234;6.754;2023-05-23T06:02:20;101352.78;;;15.40;100.00
28004;BME280;15330;51.234;6.754;2023-05-23T06:04:45;101360.94;;;15.32;100.00
28004;BME280;15330;51.234;6.754;2023-05-23T06:07:11;101363.47;;;15.57;100.00
28004;BME280;15330;51.234;6.754;2023-05-23T06:09:36;101357.03;;;15.58;100.00
28004;BME280;15330;51.234;6.754;2023-05-23T06:12:02;101353.53;;;15.57;100.00
28004;BME280;15330;51.234;6.754;2023-05-23T06:14:27;101363.91;;;15.37;100.00
28004;BME280;15330;51.234;6.754;2023-05-23T06:16:52;101361.03;;;15.39;100.00
28004;BME280;15330;51.234;6.754;2023-05-23T06:19:18;101348.72;;;15.45;100.00
28004;BME280;15330;51.234;6.754;2023-05-23T06:21:43;101358.94;;;15.49;100.00
28004;BME280;15330;51.234;6.754;2023-05-23T06:24:08;101357.16;;;15.41;100.00
28004;BME280;15330;51.234;6.754;2023-05-23T06:26:34;101365.50;;;15.55;100.00
28004;BME280;15330;51.234;6.754;2023-05-23T06:29:01;101362.81;;;15.55;100.00
28004;BME280;15330;51.234;6.754;2023-05-23T06:31:27;101362.41;;;15.58;100.00
28004;BME280;15330;51.234;6.754;2023-05-23T06:33:52;101357.25;;;15.48;100.00
28004;BME280;15330;51.234;6.754;2023-05-23T06:36:18;101360.78;;;15.49;100.00
28004;BME280;15330;51.234;6.754;2023-05-23T06:38:44;101367.19;;;15.56;100.00
28004;BME280;15330;51.234;6.754;2023-05-23T06:41:09;101369.53;;;15.51;100.00
28004;BME280;15330;51.234;6.754;2023-05-23T06:43:34;101374.09;;;15.50;100.00
28004;BME280;15330;51.234;6.754;2023-05-23T06:46:00;101362.97;;;15.53;100.00
28004;BME280;15330;51.234;6.754;2023-05-23T06:48:25;101371.56;;;15.57;100.00
28004;BME280;15330;51.234;6.754;2023-05-23T06:50:53;101370.63;;;15.41;100.00
28004;BME280;15330;51.234;6.754;2023-05-23T06:53:19;101377.81;;;15.72;100.00
28004;BME280;15330;51.234;6.754;2023-05-23T06:55:44;101385.94;;;15.87;100.00
28004;BME280;15330;51.234;6.754;2023-05-23T06:58:09;101394.31;;;15.77;100.00
28004;BME280;15330;51.234;6.754;2023-05-23T07:00:35;101396.41;;;15.44;100.00
28004;BME280;15330;51.234;6.754;2023-05-23T07:03:01;101392.63;;;15.53;100.00
28004;BME280;15330;51.234;6.754;2023-05-23T07:05:27;101392.09;;;15.58;100.00
28004;BME280;15330;51.234;6.754;2023-05-23T07:07:53;101401.72;;;15.52;100.00
28004;BME280;15330;51.234;6.754;2023-05-23T07:10:18;101398.00;;;15.53;100.00
28004;BME280;15330;51.234;6.754;2023-05-23T07:12:44;101402.19;;;15.78;100.00
28004;BME280;15330;51.234;6.754;2023-05-23T07:15:10;101409.84;;;15.90;100.00
28004;BME280;15330;51.234;6.754;2023-05-23T07:17:36;101411.25;;;15.86;100.00
28004;BME280;15330;51.234;6.754;2023-05-23T07:20:01;101414.53;;;15.96;100.00
28004;BME280;15330;51.234;6.754;2023-05-23T07:22:28;101414.03;;;15.77;100.00
28004;BME280;15330;51.234;6.754;2023-05-23T07:24:54;101407.59;;;15.78;100.00
28004;BME280;15330;51.234;6.754;2023-05-23T07:27:19;101418.38;;;15.78;100.00
28004;BME280;15330;51.234;6.754;2023-05-23T07:29:45;101424.91;;;15.84;100.00
28004;BME280;15330;51.234;6.754;2023-05-23T07:32:10;101420.09;;;15.94;100.00
28004;BME280;15330;51.234;6.754;2023-05-23T07:34:35;101425.03;;;16.05;100.00
28004;BME280;15330;51.234;6.754;2023-05-23T07:37:01;101429.47;;;15.84;100.00
28004;BME280;15330;51.234;6.754;2023-05-23T07:39:26;101422.66;;;15.73;100.00
28004;BME280;15330;51.234;6.754;2023-05-23T07:41:52;101426.47;;;15.78;100.00
28004;BME280;15330;51.234;6.754;2023-05-23T07:44:17;101418.19;;;15.80;100.00
28004;BME280;15330;51.234;6.754;2023-05-23T07:46:43;101426.72;;;15.69;100.00
28004;BME280;15330;51.234;6.754;2023-05-23T07:49:08;101426.50;;;15.56;100.00
28004;BME280;15330;51.234;6.754;2023-05-23T07:51:34;101429.88;;;15.50;100.00
28004;BME280;15330;51.234;6.754;2023-05-23T07:54:00;101431.91;;;15.56;100.00
28004;BME280;15330;51.234;6.754;2023-05-23T07:56:25;101439.44;;;15.60;100.00
28004;BME280;15330;51.234;6.754;2023-05-23T07:58:51;101439.38;;;15.46;100.00
28004;BME280;15330;51.234;6.754;2023-05-23T08:01:16;101431.53;;;15.28;100.00
28004;BME280;15330;51.234;6.754;2023-05-23T08:03:42;101444.00;;;15.60;100.00
28004;BME280;15330;51.234;6.754;2023-05-23T08:06:08;101443.44;;;15.41;100.00
28004;BME280;15330;51.234;6.754;2023-05-23T08:08:34;101439.59;;;15.59;100.00
28004;BME280;15330;51.234;6.754;2023-05-23T08:11:00;101445.81;;;15.14;100.00
28004;BME280;15330;51.234;6.754;2023-05-23T08:13:25;101457.53;;;15.21;100.00
28004;BME280;15330;51.234;6.754;2023-05-23T08:15:51;101459.56;;;15.19;100.00
28004;BME280;15330;51.234;6.754;2023-05-23T08:18:16;101454.34;;;15.25;100.00
28004;BME280;15330;51.234;6.754;2023-05-23T08:20:42;101461.81;;;15.38;100.00
28004;BME280;15330;51.234;6.754;2023-05-23T08:23:07;101469.91;;;15.07;100.00
28004;BME280;15330;51.234;6.754;2023-05-23T08:25:32;101470.69;;;14.85;100.00
28004;BME280;15330;51.234;6.754;2023-05-23T08:27:59;101476.06;;;15.24;100.00
28004;BME280;15330;51.234;6.754;2023-05-23T08:30:25;101470.75;;;15.07;100.00
28004;BME280;15330;51.234;6.754;2023-05-23T08:32:52;101481.69;;;15.06;100.00
28004;BME280;15330;51.234;6.754;2023-05-23T08:35:18;101484.81;;;14.87;100.00
28004;BME280;15330;51.234;6.754;2023-05-23T08:37:43;101490.84;;;14.97;100.00
28004;BME280;15330;51.234;6.754;2023-05-23T08:40:19;101489.75;;;15.14;100.00
28004;BME280;15330;51.234;6.754;2023-05-23T08:42:46;101496.91;;;14.52;100.00
28004;BME280;15330;51.234;6.754;2023-05-23T08:45:12;101493.16;;;14.69;100.00
28004;BME280;15330;51.234;6.754;2023-05-23T08:47:41;101504.53;;;14.87;100.00
28004;BME280;15330;51.234;6.754;2023-05-23T08:50:07;101499.94;;;14.96;100.00
28004;BME280;15330;51.234;6.754;2023-05-23T08:52:36;101510.91;;;14.86;100.00
28004;BME280;15330;51.234;6.754;2023-05-23T08:55:07;101512.47;;;14.81;100.00
28004;BME280;15330;51.234;6.754;2023-05-23T08:57:34;101502.19;;;14.84;100.00
28004;BME280;15330;51.234;6.754;2023-05-23T09:00:01;101511.00;;;14.62;100.00
28004;BME280;15330;51.234;6.754;2023-05-23T09:02:29;101518.53;;;14.75;100.00
28004;BME280;15330;51.234;6.754;2023-05-23T09:04:56;101517.06;;;14.56;100.00
28004;BME280;15330;51.234;6.754;2023-05-23T09:07:21;101515.66;;;14.76;100.00
28004;BME280;15330;51.234;6.754;2023-05-23T09:09:47;101522.53;;;14.95;100.00
28004;BME280;15330;51.234;6.754;2023-05-23T09:12:12;101524.31;;;14.55;100.00
28004;BME280;15330;51.234;6.754;2023-05-23T09:14:39;101529.72;;;14.31;100.00
28004;BME280;15330;51.234;6.754;2023-05-23T09:17:04;101533.25;;;14.48;100.00
28004;BME280;15330;51.234;6.754;2023-05-23T09:19:30;101533.59;;;14.45;100.00
28004;BME280;15330;51.234;6.754;2023-05-23T09:21:55;101540.31;;;13.84;100.00
28004;BME280;15330;51.234;6.754;2023-05-23T09:24:21;101540.84;;;14.12;100.00
28004;BME280;15330;51.234;6.754;2023-05-23T09:26:47;101539.50;;;14.00;100.00
28004;BME280;15330;51.234;6.754;2023-05-23T09:29:12;101542.69;;;14.11;100.00
28004;BME280;15330;51.234;6.754;2023-05-23T09:31:38;101544.34;;;14.04;100.00
28004;BME280;15330;51.234;6.754;2023-05-23T09:34:03;101548.41;;;14.00;100.00
28004;BME280;15330;51.234;6.754;2023-05-23T09:36:30;101544.19;;;14.22;100.00
28004;BME280;15330;51.234;6.754;2023-05-23T09:39:01;101546.53;;;14.17;100.00
28004;BME280;15330;51.234;6.754;2023-05-23T09:41:29;101554.59;;;13.76;100.00
28004;BME280;15330;51.234;6.754;2023-05-23T09:43:55;101555.63;;;14.08;100.00
28004;BME280;15330;51.234;6.754;2023-05-23T09:46:21;101554.09;;;13.97;100.00
28004;BME280;15330;51.234;6.754;2023-05-23T09:48:50;101558.28;;;13.91;100.00
28004;BME280;15330;51.234;6.754;2023-05-23T09:51:20;101557.09;;;13.70;100.00
28004;BME280;15330;51.234;6.754;2023-05-23T09:53:46;101564.00;;;13.80;100.00
28004;BME280;15330;51.234;6.754;2023-05-23T09:56:12;101556.59;;;13.82;100.00
28004;BME280;15330;51.234;6.754;2023-05-23T09:58:43;101556.63;;;13.90;100.00
28004;BME280;15330;51.234;6.754;2023-05-23T10:01:09;101575.63;;;13.97;100.00
28004;BME280;15330;51.234;6.754;2023-05-23T10:03:48;101568.41;;;13.98;100.00
28004;BME280;15330;51.234;6.754;2023-05-23T10:06:24;101569.91;;;14.16;100.00
28004;BME280;15330;51.234;6.754;2023-05-23T10:08:56;101577.13;;;14.24;100.00
28004;BME280;15330;51.234;6.754;2023-05-23T10:14:08;101569.91;;;14.16;100.00
28004;BME280;15330;51.234;6.754;2023-05-23T10:16:48;101575.63;;;14.05;100.00
28004;BME280;15330;51.234;6.754;2023-05-23T10:19:24;101575.97;;;14.26;100.00
28004;BME280;15330;51.234;6.754;2023-05-23T10:21:59;101575.94;;;13.94;100.00
28004;BME280;15330;51.234;6.754;2023-05-23T10:24:25;101576.13;;;14.17;100.00
28004;BME280;15330;51.234;6.754;2023-05-23T10:26:53;101566.91;;;14.11;100.00
28004;BME280;15330;51.234;6.754;2023-05-23T10:29:23;101566.88;;;14.36;100.00
28004;BME280;15330;51.234;6.754;2023-05-23T10:31:50;101583.38;;;14.32;100.00
28004;BME280;15330;51.234;6.754;2023-05-23T10:37:00;101597.56;;;15.06;98.10
28004;BME280;15330;51.234;6.754;2023-05-23T10:42:13;101584.59;;;15.49;93.58
28004;BME280;15330;51.234;6.754;2023-05-23T10:44:40;101586.84;;;15.99;90.47
28004;BME280;15330;51.234;6.754;2023-05-23T10:47:05;101587.56;;;16.15;88.52
28004;BME280;15330;51.234;6.754;2023-05-23T10:49:38;101585.38;;;16.34;88.25
28004;BME280;15330;51.234;6.754;2023-05-23T10:52:04;101586.47;;;16.47;85.16
28004;BME280;15330;51.234;6.754;2023-05-23T10:54:50;101599.47;;;16.06;87.00
28004;BME280;15330;51.234;6.754;2023-05-23T10:57:18;101596.69;;;16.52;86.36
28004;BME280;15330;51.234;6.754;2023-05-23T10:59:44;101593.81;;;16.39;87.29
28004;BME280;15330;51.234;6.754;2023-05-23T11:02:16;101590.81;;;16.11;87.18
28004;BME280;15330;51.234;6.754;2023-05-23T11:04:42;101594.91;;;16.44;87.18
28004;BME280;15330;51.234;6.754;2023-05-23T11:07:27;101601.25;;;15.60;87.67
28004;BME280;15330;51.234;6.754;2023-05-23T11:10:09;101589.66;;;15.83;87.08
28004;BME280;15330;51.234;6.754;2023-05-23T11:12:41;101594.09;;;15.75;88.11
28004;BME280;15330;51.234;6.754;2023-05-23T11:17:56;101594.75;;;16.23;87.23
28004;BME280;15330;51.234;6.754;2023-05-23T11:20:26;101592.47;;;16.12;87.81
28004;BME280;15330;51.234;6.754;2023-05-23T11:23:02;101596.63;;;16.23;88.56
28004;BME280;15330;51.234;6.754;2023-05-23T11:25:44;101596.94;;;16.05;89.09
28004;BME280;15330;51.234;6.754;2023-05-23T11:28:12;101594.94;;;15.99;89.54
28004;BME280;15330;51.234;6.754;2023-05-23T11:30:38;101597.72;;;15.60;88.16
28004;BME280;15330;51.234;6.754;2023-05-23T11:33:14;101603.03;;;15.76;88.31
28004;BME280;15330;51.234;6.754;2023-05-23T11:35:45;101601.75;;;15.64;88.51
28004;BME280;15330;51.234;6.754;2023-05-23T11:38:13;101598.28;;;15.78;86.01
28004;BME280;15330;51.234;6.754;2023-05-23T11:40:40;101606.25;;;15.71;86.95
28004;BME280;15330;51.234;6.754;2023-05-23T11:43:10;101604.63;;;16.16;85.75
28004;BME280;15330;51.234;6.754;2023-05-23T11:45:39;101603.34;;;16.27;85.25
28004;BME280;15330;51.234;6.754;2023-05-23T11:48:09;101603.44;;;16.33;84.68
28004;BME280;15330;51.234;6.754;2023-05-23T11:51:02;101607.06;;;16.26;83.68
28004;BME280;15330;51.234;6.754;2023-05-23T11:53:27;101610.34;;;16.36;84.91
28004;BME280;15330;51.234;6.754;2023-05-23T11:55:56;101610.53;;;16.11;84.81
28004;BME280;15330;51.234;6.754;2023-05-23T11:58:29;101619.84;;;15.86;86.78
28004;BME280;15330;51.234;6.754;2023-05-23T12:01:03;101613.88;;;15.91;86.79
28004;BME280;15330;51.234;6.754;2023-05-23T12:03:29;101614.91;;;15.90;85.98
28004;BME280;15330;51.234;6.754;2023-05-23T12:05:56;101614.25;;;15.88;85.48
28004;BME280;15330;51.234;6.754;2023-05-23T12:08:21;101615.41;;;16.39;84.98
28004;BME280;15330;51.234;6.754;2023-05-23T12:10:51;101618.28;;;16.37;83.97
28004;BME280;15330;51.234;6.754;2023-05-23T12:13:17;101619.63;;;16.56;84.42
28004;BME280;15330;51.234;6.754;2023-05-23T12:15:43;101620.13;;;16.60;83.49
28004;BME280;15330;51.234;6.754;2023-05-23T12:18:08;101623.34;;;16.18;80.57
28004;BME280;15330;51.234;6.754;2023-05-23T12:20:34;101617.13;;;15.86;81.28
28004;BME280;15330;51.234;6.754;2023-05-23T12:23:03;101621.50;;;16.56;80.03
28004;BME280;15330;51.234;6.754;2023-05-23T12:25:37;101620.91;;;16.83;78.21
28004;BME280;15330;51.234;6.754;2023-05-23T12:28:03;101618.06;;;17.29;77.49
28004;BME280;15330;51.234;6.754;2023-05-23T12:30:40;101620.44;;;17.82;75.33
28004;BME280;15330;51.234;6.754;2023-05-23T12:33:09;101623.00;;;17.90;76.53
28004;BME280;15330;51.234;6.754;2023-05-23T12:35:35;101622.66;;;18.15;75.90
28004;BME280;15330;51.234;6.754;2023-05-23T12:38:01;101619.31;;;17.62;76.13
28004;BME280;15330;51.234;6.754;2023-05-23T12:40:27;101621.25;;;17.83;74.91
28004;BME280;15330;51.234;6.754;2023-05-23T12:42:55;101615.13;;;17.74;72.77
28004;BME280;15330;51.234;6.754;2023-05-23T12:45:21;101616.34;;;17.72;67.89
28004;BME280;15330;51.234;6.754;2023-05-23T12:47:47;101616.00;;;17.96;69.69
28004;BME280;15330;51.234;6.754;2023-05-23T12:50:13;101618.44;;;17.91;71.06
28004;BME280;15330;51.234;6.754;2023-05-23T12:52:39;101607.63;;;17.76;67.19
28004;BME280;15330;51.234;6.754;2023-05-23T12:55:05;101599.72;;;18.39;67.86
28004;BME280;15330;51.234;6.754;2023-05-23T12:57:33;101603.38;;;18.24;66.33